Airfield :







YOU CAN JOIN US ON...

 
LOGIN :

Register | Disclaimer

   EN    FR    IT 

 









Legend :    VFR   Marginal VFR   IFR   Intensive IFR   Very Intensive IFR
Visi :
Ceiling :
>= 8 km
>= 3000ft
5 to 8 km
1000 to 3000 ft
1500m to 5 km
500 to 1000 ft
800 to 1500m
200 to 500 ft
< 800m
< 200 ft
Symbols :   Thunderstorms  Fog  Heavy snow  Heavy precipitations  Wind > 20 kt






- Airport Elevation : 121 ft
- IATA code : YBX


CYBX - Lourdes De Blanc Sablon

CURRENT METAR :
  • 060400Z 23007KT 4SM -SN OVC005 M02/M03 A2979 RMK SC8 SLP091

EXPIRED METARs :
  • 060300Z 23007KT 3SM -SN OVC006 M02/M03 A2981 RMK SC8 SLP099

TAF TAF CYBX
Valid from the 06 at 02:00 until the 06 at 14:00 UTC


060138Z 0602/0614 24010KT 6SM -SN SCT005 OVC010
TEMPO 0602/0604 2SM -SN OVC005
FM060400 21012KT 2SM -SN OVC006
TEMPO 0604/0607 3/4SM -SN OVC003
FM060700 20010G20KT 3/4SM -SN VV003
TEMPO 0607/0613 11/2SM -SN OVC006
FM061300 19015G25KT 1/2SM SN VV002 RMK NXT FCST BY 060800Z



MET'MAP, your aeronautical weather chart ! - Copyright ORBIFLY December 2007 - Disclaimer

ORBIFLY MET'MAP TEAM :

Programming & Development : Alexandra Zaïnal
Concept & original design : Baudouin d'Aumeries
Assistance for programming : Marc-Olivier Méhu
Technical & hardware support : Manuel Goepfert

Contact : metmap@orbifly.com




SOURCES & CREDITS :

   NOAA